Goliah — WDD5908 — position and weather

sailwx.info

Track history (hours):
 
Tides and Currents Weather Stations Pressure Air Temp Water Temp Dewpoint Dewpoint Depression Visibility Wind Speed Wind Dir Waves Ship Positions

Goliah

Owner: Crowley Marine Services, Seattle, WA. More information available from US FCC via Universal Licensing System and Coast Guard Vessel Documentation Center.

Last reported at 2017-May-24 11:30 UTC. Time now 2017-May-24 11:45 UTC.
Position N 33°45' W 118°13'.

Length 33 m; draft 4.8 m.

Type: Tug. MMSI: 366898250.

Date/timePositionNaut miles runAvg speedWind from/ knotsBaromVisibWave heightAir tempDewpointWater temp
2017-May-24 11:30N 33°45' W 118°13'1 2.7
2017-May-24 10:58N 33°46' W 118°13'0 0.4
2017-May-24 10:29N 33°46' W 118°13'1 1.6
2017-May-24 10:00N 33°45' W 118°13'0 0.9
2017-May-24 09:29N 33°45' W 118°13'1 2.7
2017-May-24 09:00N 33°46' W 118°13'0 0.0
2017-May-24 08:30N 33°46' W 118°13'0 0.0
2017-May-24 08:00N 33°46' W 118°13'1 2.1
2017-May-24 07:30N 33°45' W 118°13'2 4.0
2017-May-24 07:00N 33°44' W 118°12'3 5.9
2017-May-24 06:30N 33°41' W 118°09'510.7
2017-May-24 06:00N 33°43' W 118°15'2 3.4
2017-May-24 05:25N 33°44' W 118°17'0 0.0
2017-May-24 05:00N 33°44' W 118°17'0 0.0
2017-May-24 04:30N 33°44' W 118°17'0 0.0
2017-May-24 03:59N 33°44' W 118°17'0 0.1
2017-May-24 03:30N 33°44' W 118°17'3 6.5
2017-May-24 03:00N 33°43' W 118°13'1 2.2
2017-May-24 02:30N 33°44' W 118°13'1 1.7
2017-May-24 02:00N 33°45' W 118°13'0 0.7
2017-May-24 01:31N 33°46' W 118°13'0 0.1
2017-May-24 01:00N 33°46' W 118°13'0 0.0
2017-May-24 00:30N 33°46' W 118°13'1 1.6
2017-May-24 00:00N 33°45' W 118°13'0 0.8
2017-May-23 23:26N 33°44' W 118°12'2 3.9
2017-May-23 23:00N 33°45' W 118°14'0 0.1
2017-May-23 22:30N 33°45' W 118°14'1 2.7
2017-May-23 22:00N 33°44' W 118°13'1 2.5
2017-May-23 21:30N 33°44' W 118°12'1 2.0
2017-May-23 21:00N 33°43' W 118°13'3 6.3
2017-May-23 20:30N 33°44' W 118°17'0 0.5
2017-May-23 20:00N 33°44' W 118°17'0 0.0
2017-May-23 19:30N 33°44' W 118°17'0 0.0
2017-May-23 18:48N 33°44' W 118°17'0 0.0
2017-May-23 18:27N 33°44' W 118°17'0 0.0
2017-May-23 17:45N 33°44' W 118°17'0 0.0
2017-May-23 17:30N 33°44' W 118°17'0 0.0
2017-May-23 17:00N 33°44' W 118°17'0 0.0
2017-May-23 16:30N 33°44' W 118°17'0 0.0
2017-May-23 16:00N 33°44' W 118°17'0 0.0
2017-May-23 15:30N 33°44' W 118°17'0 0.0
2017-May-23 14:55N 33°44' W 118°17'0 0.0
2017-May-23 14:22N 33°44' W 118°17'4 4.6
2017-May-23 13:30N 33°44' W 118°12'0 0.2
2017-May-23 13:01N 33°45' W 118°12'1 1.8
2017-May-23 12:26N 33°44' W 118°11'0 0.6
2017-May-23 12:00N 33°44' W 118°11'3 6.8
2017-May-23 11:30N 33°46' W 118°13'0 0.2
2017-May-23 11:00N 33°46' W 118°13'2 3.6
2017-May-23 10:30N 33°45' W 118°13'2 3.0
2017-May-23 10:00N 33°44' W 118°11'0 0.2
2017-May-23 09:30N 33°44' W 118°12'0 0.1
2017-May-23 09:00N 33°44' W 118°11'0 0.8
2017-May-23 08:30N 33°44' W 118°12'0 0.4
2017-May-23 07:59N 33°44' W 118°12'0 0.7
2017-May-23 07:30N 33°44' W 118°12'3 6.4
2017-May-23 07:00N 33°44' W 118°16'1 1.6
2017-May-23 06:30N 33°44' W 118°17'0 0.0
2017-May-23 05:59N 33°44' W 118°17'0 0.0
2017-May-23 05:30N 33°44' W 118°17'0 0.0
2017-May-23 05:00N 33°44' W 118°17'0 0.0
2017-May-23 04:30N 33°44' W 118°17'0 0.0
2017-May-23 04:00N 33°44' W 118°17'0 0.0
2017-May-23 03:30N 33°44' W 118°17'0 0.3
2017-May-23 03:00N 33°44' W 118°17'3 5.7
2017-May-23 02:30N 33°43' W 118°13'3 5.3
2017-May-23 02:00N 33°44' W 118°10'2 3.2
2017-May-23 01:30N 33°44' W 118°12'1 1.1
2017-May-23 01:00N 33°45' W 118°12'2 4.0
2017-May-23 00:30N 33°43' W 118°14'3 5.2
2017-May-23 00:00N 33°44' W 118°17'0 0.0
2017-May-22 23:30N 33°44' W 118°17'0 0.0
2017-May-22 23:00N 33°44' W 118°17'0 0.1
2017-May-22 22:28N 33°44' W 118°17'3 5.6
2017-May-22 22:00N 33°43' W 118°14'2 4.8
2017-May-22 21:30N 33°45' W 118°13'0 0.0
2017-May-22 21:01N 33°45' W 118°13'1 1.4
2017-May-22 20:30N 33°45' W 118°13'1 1.9
2017-May-22 20:00N 33°44' W 118°13'0 0.2
2017-May-22 19:30N 33°44' W 118°12'2 3.9
2017-May-22 18:57N 33°44' W 118°10'1 1.9
2017-May-22 18:28N 33°44' W 118°09'0 0.8
2017-May-22 18:00N 33°44' W 118°09'3 6.6
2017-May-22 17:30N 33°45' W 118°13'0 0.0
2017-May-22 16:58N 33°45' W 118°13'0 0.0
2017-May-22 16:03N 33°45' W 118°13'0 0.0
2017-May-22 16:00N 33°45' W 118°13'0 0.0
2017-May-22 15:27N 33°45' W 118°13'0 0.0
2017-May-22 14:59N 33°45' W 118°13'1 1.0
2017-May-22 14:00N 33°44' W 118°13'1 3.0
2017-May-22 13:30N 33°45' W 118°14'0 0.6
2017-May-22 13:00N 33°45' W 118°14'2 4.7
2017-May-22 12:30N 33°43' W 118°15'3 5.5
2017-May-22 12:00N 33°45' W 118°16'1 2.3
2017-May-22 11:30N 33°46' W 118°14'1 1.8
2017-May-22 11:00N 33°46' W 118°15'2 4.7
2017-May-22 10:30N 33°43' W 118°16'1 2.8
2017-May-22 10:00N 33°43' W 118°15'1 2.2
2017-May-22 09:30N 33°43' W 118°16'1 2.8
2017-May-22 09:00N 33°44' W 118°17'0 0.0
2017-May-22 08:30N 33°44' W 118°17'0 0.0
2017-May-22 08:00N 33°44' W 118°17'0 0.0
2017-May-22 07:30N 33°44' W 118°17'0 0.0
2017-May-22 07:00N 33°44' W 118°17'0 0.0
2017-May-22 06:30N 33°44' W 118°17'0 0.0
2017-May-22 06:00N 33°44' W 118°17'0 0.0
2017-May-22 05:30N 33°44' W 118°17'0 0.0
2017-May-22 05:00N 33°44' W 118°17'0 0.0
2017-May-22 04:30N 33°44' W 118°17'0 0.0
2017-May-22 04:00N 33°44' W 118°17'0 0.0
2017-May-22 03:30N 33°44' W 118°17'0 0.0
2017-May-22 03:00N 33°44' W 118°17'2 2.7
2017-May-22 02:27N 33°43' W 118°16'1 2.3
2017-May-22 02:00N 33°44' W 118°15'0 0.6
2017-May-22 01:30N 33°44' W 118°15'1 2.3
2017-May-22 01:00N 33°43' W 118°16'3 6.4
2017-May-22 00:31N 33°45' W 118°13'1 2.1
2017-May-22 00:00N 33°46' W 118°14'0 0.4
2017-May-21 23:30N 33°46' W 118°14'1 2.6
2017-May-21 23:01N 33°45' W 118°13'0 0.0
2017-May-21 22:30N 33°45' W 118°13'0 0.0
2017-May-21 21:53N 33°45' W 118°13'1 1.7
2017-May-21 21:30N 33°46' W 118°13'1 1.3
2017-May-21 21:00N 33°46' W 118°13'0 0.5
2017-May-21 20:30N 33°46' W 118°13'3 6.8
2017-May-21 20:00N 33°43' W 118°15'2 4.6
2017-May-21 19:30N 33°44' W 118°17'0 0.0
2017-May-21 19:00N 33°44' W 118°17'0 0.0
2017-May-21 18:30N 33°44' W 118°17'0 0.0
2017-May-21 18:00N 33°44' W 118°17'0 0.0
2017-May-21 17:30N 33°44' W 118°17'0 0.0
2017-May-21 16:52N 33°44' W 118°17'0 0.0
2017-May-21 16:30N 33°44' W 118°17'2 3.4
2017-May-21 16:00N 33°43' W 118°16'3 5.8
2017-May-21 15:30N 33°45' W 118°13'2 3.2
2017-May-21 15:00N 33°46' W 118°13'3 3.1
2017-May-21 14:00N 33°44' W 118°12'1 2.6
2017-May-21 13:30N 33°43' W 118°13'3 5.4
2017-May-21 13:00N 33°44' W 118°17'0 0.7
2017-May-21 12:30N 33°44' W 118°17'0 0.0
2017-May-21 12:00N 33°44' W 118°17'0 0.0
2017-May-21 11:30N 33°44' W 118°17'0 0.0
2017-May-21 11:00N 33°44' W 118°17'0 0.0
2017-May-21 10:30N 33°44' W 118°17'0 0.0
2017-May-21 10:00N 33°44' W 118°17'0 0.0
2017-May-21 09:30N 33°44' W 118°17'0 0.0
2017-May-21 09:00N 33°44' W 118°17'0 0.0
2017-May-21 08:30N 33°44' W 118°17'0 0.0
2017-May-21 08:00N 33°44' W 118°17'0 0.0
2017-May-21 07:30N 33°44' W 118°17'0 0.0
2017-May-21 07:00N 33°44' W 118°17'0 0.0
2017-May-21 06:30N 33°44' W 118°17'0 0.0
2017-May-21 06:00N 33°44' W 118°17'0 0.0
2017-May-21 05:30N 33°44' W 118°17'0 0.0
2017-May-21 05:00N 33°44' W 118°17'0 0.0
2017-May-21 04:30N 33°44' W 118°17'0 0.0
2017-May-21 03:52N 33°44' W 118°17'0 0.0
2017-May-21 03:30N 33°44' W 118°17'0 0.0
2017-May-21 03:00N 33°44' W 118°17'0 0.0
2017-May-21 02:30N 33°44' W 118°17'0 0.0
2017-May-21 02:00N 33°44' W 118°17'0 0.0
2017-May-21 01:30N 33°44' W 118°17'0 0.0
2017-May-21 01:00N 33°44' W 118°17'0 0.0
2017-May-21 00:30N 33°44' W 118°17'0 0.0
2017-May-21 00:00N 33°44' W 118°17'0 0.0
2017-May-20 23:30N 33°44' W 118°17'0 0.0
2017-May-20 23:00N 33°44' W 118°17'0 0.0
2017-May-20 22:30N 33°44' W 118°17'0 0.0
2017-May-20 22:00N 33°44' W 118°17'0 0.0
2017-May-20 21:30N 33°44' W 118°17'0 0.0
2017-May-20 17:00N 33°44' W 118°17'0 0.0
2017-May-20 16:04N 33°44' W 118°17'0 0.0
2017-May-20 15:51N 33°44' W 118°17'0 0.0
2017-May-20 15:29N 33°44' W 118°17'0 0.0
2017-May-20 14:48N 33°44' W 118°17'0 0.0
2017-May-20 14:30N 33°44' W 118°17'2 2.5
2017-May-20 13:30N 33°43' W 118°14'2 5.0
2017-May-20 13:00N 33°44' W 118°12'1 1.0
2017-May-20 12:30N 33°44' W 118°12'1 2.2
2017-May-20 12:00N 33°44' W 118°11'1 2.2
2017-May-20 11:30N 33°43' W 118°12'3 6.5
2017-May-20 11:00N 33°43' W 118°16'1 2.5
2017-May-20 10:29N 33°44' W 118°17'0 0.0
2017-May-20 09:56N 33°44' W 118°17'0 0.0
2017-May-20 09:22N 33°44' W 118°17'0 0.0
2017-May-20 09:00N 33°44' W 118°17'0 0.0
2017-May-20 08:30N 33°44' W 118°17'0 0.0
2017-May-20 07:55N 33°44' W 118°17'0 0.0
2017-May-20 07:29N 33°44' W 118°17'0 0.0
2017-May-20 06:54N 33°44' W 118°17'0 0.0
2017-May-20 06:28N 33°44' W 118°17'0 0.0
2017-May-20 05:59N 33°44' W 118°17'0 0.0
2017-May-20 05:30N 33°44' W 118°17'0 0.0
2017-May-20 05:00N 33°44' W 118°17'0 0.0
2017-May-20 04:30N 33°44' W 118°17'1 0.4
2017-May-20 03:06N 33°44' W 118°16'1 6.0
2017-May-20 02:59N 33°43' W 118°16'3 6.2
2017-May-20 02:30N 33°45' W 118°13'2 1.7
2017-May-20 01:35N 33°46' W 118°13'0 4.5
2017-May-20 01:30N 33°46' W 118°13'1 1.7
2017-May-20 00:52N 33°45' W 118°13'0 0.0
2017-May-20 00:30N 33°45' W 118°13'0 0.0
2017-May-19 23:57N 33°45' W 118°13'0 0.0
2017-May-19 23:24N 33°45' W 118°13'0 0.0
2017-May-19 22:58N 33°45' W 118°13'0 0.0
2017-May-19 22:30N 33°45' W 118°13'0 0.0
2017-May-19 22:00N 33°45' W 118°13'0 0.0
2017-May-19 21:30N 33°45' W 118°13'0 0.0
2017-May-19 20:38N 33°45' W 118°13'0 0.0
2017-May-19 20:23N 33°45' W 118°13'0 0.9
2017-May-19 19:51N 33°45' W 118°12'0 0.2
2017-May-19 19:30N 33°45' W 118°12'2 3.6
2017-May-19 19:00N 33°44' W 118°11'3 5.2
2017-May-19 18:30N 33°43' W 118°14'3 5.1
2017-May-19 17:59N 33°44' W 118°17'0 0.0
2017-May-19 17:29N 33°44' W 118°17'0 0.0
2017-May-19 17:00N 33°44' W 118°17'0 0.7
2017-May-19 16:30N 33°44' W 118°17'0 0.6
2017-May-19 15:59N 33°44' W 118°16'0 0.0
2017-May-19 15:29N 33°44' W 118°16'0 0.0
2017-May-19 15:00N 33°44' W 118°16'1 2.6
2017-May-19 14:30N 33°43' W 118°15'3 3.0
2017-May-19 13:30N 33°45' W 118°13'1 2.1
2017-May-19 13:00N 33°46' W 118°13'0 0.0
2017-May-19 12:30N 33°46' W 118°13'0 0.0
2017-May-19 12:00N 33°46' W 118°13'0 0.2
2017-May-19 11:30N 33°46' W 118°14'0 0.3
2017-May-19 11:00N 33°46' W 118°13'0 0.4
2017-May-19 10:30N 33°46' W 118°13'1 2.1
2017-May-19 10:00N 33°45' W 118°13'0 0.0
2017-May-19 09:30N 33°45' W 118°13'0 0.0
2017-May-19 09:00N 33°45' W 118°13'0 0.0
2017-May-19 08:26N 33°45' W 118°13'0 0.0
2017-May-19 08:00N 33°45' W 118°13'0 0.0
2017-May-19 07:29N 33°45' W 118°13'0 0.0
2017-May-19 07:00N 33°45' W 118°13'0 0.0
2017-May-19 06:30N 33°45' W 118°13'0 0.0
2017-May-19 06:00N 33°45' W 118°13'0 0.0
2017-May-19 05:30N 33°45' W 118°13'0 0.0
2017-May-19 05:00N 33°45' W 118°13'1 1.4
2017-May-19 04:30N 33°44' W 118°12'1 1.0
2017-May-19 04:00N 33°45' W 118°13'1 1.3
2017-May-19 03:30N 33°44' W 118°12'3 6.8
2017-May-19 03:00N 33°44' W 118°17'1 1.0
2017-May-19 02:30N 33°44' W 118°17'0 0.0
2017-May-19 02:00N 33°44' W 118°17'0 0.0
2017-May-19 01:30N 33°44' W 118°17'0 0.0
2017-May-19 01:00N 33°44' W 118°17'0 0.9
2017-May-19 00:30N 33°44' W 118°16'3 5.8
2017-May-19 00:00N 33°44' W 118°13'1 2.1
2017-May-18 23:24N 33°45' W 118°12'0 0.0
2017-May-18 22:38N 33°45' W 118°12'0 0.0
2017-May-18 22:24N 33°45' W 118°12'1 2.1
2017-May-18 21:55N 33°44' W 118°12'1 2.7
2017-May-18 21:28N 33°43' W 118°11'3 5.5
2017-May-18 21:00N 33°41' W 118°10'4 6.2
2017-May-18 20:21N 33°43' W 118°15'2 4.4
2017-May-18 19:55N 33°44' W 118°16'2 3.6
2017-May-18 19:29N 33°45' W 118°17'0 0.2
2017-May-18 18:59N 33°45' W 118°17'  
2017-May-14 13:00N 33°43' W 118°15'2 2.2
2017-May-14 12:18N 33°44' W 118°17'0 0.1
2017-May-14 11:50N 33°44' W 118°16'  
Track history (hours):
 
Tides and Currents Weather Stations Pressure Air Temp Water Temp Dewpoint Dewpoint Depression Visibility Wind Speed Wind Dir Waves Ship Positions

Goliah

Owner: Crowley Marine Services, Seattle, WA. More information available from US FCC via Universal Licensing System and Coast Guard Vessel Documentation Center.

Last reported at 2017-May-24 11:30 UTC. Time now 2017-May-24 11:45 UTC.
Position N 33°45' W 118°13'.

Length 33 m; draft 4.8 m.

Type: Tug. MMSI: 366898250.

Date/timePositionNaut miles runAvg speedWind from/ knotsBaromVisibWave heightAir tempDewpointWater temp
2017-May-24 11:30N 33°45' W 118°13'1 2.7
2017-May-24 10:58N 33°46' W 118°13'0 0.4
2017-May-24 10:29N 33°46' W 118°13'1 1.6
2017-May-24 10:00N 33°45' W 118°13'0 0.9
2017-May-24 09:29N 33°45' W 118°13'1 2.7
2017-May-24 09:00N 33°46' W 118°13'0 0.0
2017-May-24 08:30N 33°46' W 118°13'0 0.0
2017-May-24 08:00N 33°46' W 118°13'1 2.1
2017-May-24 07:30N 33°45' W 118°13'2 4.0
2017-May-24 07:00N 33°44' W 118°12'3 5.9
2017-May-24 06:30N 33°41' W 118°09'510.7
2017-May-24 06:00N 33°43' W 118°15'2 3.4
2017-May-24 05:25N 33°44' W 118°17'0 0.0
2017-May-24 05:00N 33°44' W 118°17'0 0.0
2017-May-24 04:30N 33°44' W 118°17'0 0.0
2017-May-24 03:59N 33°44' W 118°17'0 0.1
2017-May-24 03:30N 33°44' W 118°17'3 6.5
2017-May-24 03:00N 33°43' W 118°13'1 2.2
2017-May-24 02:30N 33°44' W 118°13'1 1.7
2017-May-24 02:00N 33°45' W 118°13'0 0.7
2017-May-24 01:31N 33°46' W 118°13'0 0.1
2017-May-24 01:00N 33°46' W 118°13'0 0.0
2017-May-24 00:30N 33°46' W 118°13'1 1.6
2017-May-24 00:00N 33°45' W 118°13'0 0.8
2017-May-23 23:26N 33°44' W 118°12'2 3.9
2017-May-23 23:00N 33°45' W 118°14'0 0.1
2017-May-23 22:30N 33°45' W 118°14'1 2.7
2017-May-23 22:00N 33°44' W 118°13'1 2.5
2017-May-23 21:30N 33°44' W 118°12'1 2.0
2017-May-23 21:00N 33°43' W 118°13'3 6.3
2017-May-23 20:30N 33°44' W 118°17'0 0.5
2017-May-23 20:00N 33°44' W 118°17'0 0.0
2017-May-23 19:30N 33°44' W 118°17'0 0.0
2017-May-23 18:48N 33°44' W 118°17'0 0.0
2017-May-23 18:27N 33°44' W 118°17'0 0.0
2017-May-23 17:45N 33°44' W 118°17'0 0.0
2017-May-23 17:30N 33°44' W 118°17'0 0.0
2017-May-23 17:00N 33°44' W 118°17'0 0.0
2017-May-23 16:30N 33°44' W 118°17'0 0.0
2017-May-23 16:00N 33°44' W 118°17'0 0.0
2017-May-23 15:30N 33°44' W 118°17'0 0.0
2017-May-23 14:55N 33°44' W 118°17'0 0.0
2017-May-23 14:22N 33°44' W 118°17'4 4.6
2017-May-23 13:30N 33°44' W 118°12'0 0.2
2017-May-23 13:01N 33°45' W 118°12'1 1.8
2017-May-23 12:26N 33°44' W 118°11'0 0.6
2017-May-23 12:00N 33°44' W 118°11'3 6.8
2017-May-23 11:30N 33°46' W 118°13'0 0.2
2017-May-23 11:00N 33°46' W 118°13'2 3.6
2017-May-23 10:30N 33°45' W 118°13'2 3.0
2017-May-23 10:00N 33°44' W 118°11'0 0.2
2017-May-23 09:30N 33°44' W 118°12'0 0.1
2017-May-23 09:00N 33°44' W 118°11'0 0.8
2017-May-23 08:30N 33°44' W 118°12'0 0.4
2017-May-23 07:59N 33°44' W 118°12'0 0.7
2017-May-23 07:30N 33°44' W 118°12'3 6.4
2017-May-23 07:00N 33°44' W 118°16'1 1.6
2017-May-23 06:30N 33°44' W 118°17'0 0.0
2017-May-23 05:59N 33°44' W 118°17'0 0.0
2017-May-23 05:30N 33°44' W 118°17'0 0.0
2017-May-23 05:00N 33°44' W 118°17'0 0.0
2017-May-23 04:30N 33°44' W 118°17'0 0.0
2017-May-23 04:00N 33°44' W 118°17'0 0.0
2017-May-23 03:30N 33°44' W 118°17'0 0.3
2017-May-23 03:00N 33°44' W 118°17'3 5.7
2017-May-23 02:30N 33°43' W 118°13'3 5.3
2017-May-23 02:00N 33°44' W 118°10'2 3.2
2017-May-23 01:30N 33°44' W 118°12'1 1.1
2017-May-23 01:00N 33°45' W 118°12'2 4.0
2017-May-23 00:30N 33°43' W 118°14'3 5.2
2017-May-23 00:00N 33°44' W 118°17'0 0.0
2017-May-22 23:30N 33°44' W 118°17'0 0.0
2017-May-22 23:00N 33°44' W 118°17'0 0.1
2017-May-22 22:28N 33°44' W 118°17'3 5.6
2017-May-22 22:00N 33°43' W 118°14'2 4.8
2017-May-22 21:30N 33°45' W 118°13'0 0.0
2017-May-22 21:01N 33°45' W 118°13'1 1.4
2017-May-22 20:30N 33°45' W 118°13'1 1.9
2017-May-22 20:00N 33°44' W 118°13'0 0.2
2017-May-22 19:30N 33°44' W 118°12'2 3.9
2017-May-22 18:57N 33°44' W 118°10'1 1.9
2017-May-22 18:28N 33°44' W 118°09'0 0.8
2017-May-22 18:00N 33°44' W 118°09'3 6.6
2017-May-22 17:30N 33°45' W 118°13'0 0.0
2017-May-22 16:58N 33°45' W 118°13'0 0.0
2017-May-22 16:03N 33°45' W 118°13'0 0.0
2017-May-22 16:00N 33°45' W 118°13'0 0.0
2017-May-22 15:27N 33°45' W 118°13'0 0.0
2017-May-22 14:59N 33°45' W 118°13'1 1.0
2017-May-22 14:00N 33°44' W 118°13'1 3.0
2017-May-22 13:30N 33°45' W 118°14'0 0.6
2017-May-22 13:00N 33°45' W 118°14'2 4.7
2017-May-22 12:30N 33°43' W 118°15'3 5.5
2017-May-22 12:00N 33°45' W 118°16'1 2.3
2017-May-22 11:30N 33°46' W 118°14'1 1.8
2017-May-22 11:00N 33°46' W 118°15'2 4.7
2017-May-22 10:30N 33°43' W 118°16'1 2.8
2017-May-22 10:00N 33°43' W 118°15'1 2.2
2017-May-22 09:30N 33°43' W 118°16'1 2.8
2017-May-22 09:00N 33°44' W 118°17'0 0.0
2017-May-22 08:30N 33°44' W 118°17'0 0.0
2017-May-22 08:00N 33°44' W 118°17'0 0.0
2017-May-22 07:30N 33°44' W 118°17'0 0.0
2017-May-22 07:00N 33°44' W 118°17'0 0.0
2017-May-22 06:30N 33°44' W 118°17'0 0.0
2017-May-22 06:00N 33°44' W 118°17'0 0.0
2017-May-22 05:30N 33°44' W 118°17'0 0.0
2017-May-22 05:00N 33°44' W 118°17'0 0.0
2017-May-22 04:30N 33°44' W 118°17'0 0.0
2017-May-22 04:00N 33°44' W 118°17'0 0.0
2017-May-22 03:30N 33°44' W 118°17'0 0.0
2017-May-22 03:00N 33°44' W 118°17'2 2.7
2017-May-22 02:27N 33°43' W 118°16'1 2.3
2017-May-22 02:00N 33°44' W 118°15'0 0.6
2017-May-22 01:30N 33°44' W 118°15'1 2.3
2017-May-22 01:00N 33°43' W 118°16'3 6.4
2017-May-22 00:31N 33°45' W 118°13'1 2.1
2017-May-22 00:00N 33°46' W 118°14'0 0.4
2017-May-21 23:30N 33°46' W 118°14'1 2.6
2017-May-21 23:01N 33°45' W 118°13'0 0.0
2017-May-21 22:30N 33°45' W 118°13'0 0.0
2017-May-21 21:53N 33°45' W 118°13'1 1.7
2017-May-21 21:30N 33°46' W 118°13'1 1.3
2017-May-21 21:00N 33°46' W 118°13'0 0.5
2017-May-21 20:30N 33°46' W 118°13'3 6.8
2017-May-21 20:00N 33°43' W 118°15'2 4.6
2017-May-21 19:30N 33°44' W 118°17'0 0.0
2017-May-21 19:00N 33°44' W 118°17'0 0.0
2017-May-21 18:30N 33°44' W 118°17'0 0.0
2017-May-21 18:00N 33°44' W 118°17'0 0.0
2017-May-21 17:30N 33°44' W 118°17'0 0.0
2017-May-21 16:52N 33°44' W 118°17'0 0.0
2017-May-21 16:30N 33°44' W 118°17'2 3.4
2017-May-21 16:00N 33°43' W 118°16'3 5.8
2017-May-21 15:30N 33°45' W 118°13'2 3.2
2017-May-21 15:00N 33°46' W 118°13'3 3.1
2017-May-21 14:00N 33°44' W 118°12'1 2.6
2017-May-21 13:30N 33°43' W 118°13'3 5.4
2017-May-21 13:00N 33°44' W 118°17'0 0.7
2017-May-21 12:30N 33°44' W 118°17'0 0.0
2017-May-21 12:00N 33°44' W 118°17'0 0.0
2017-May-21 11:30N 33°44' W 118°17'0 0.0
2017-May-21 11:00N 33°44' W 118°17'0 0.0
2017-May-21 10:30N 33°44' W 118°17'0 0.0
2017-May-21 10:00N 33°44' W 118°17'0 0.0
2017-May-21 09:30N 33°44' W 118°17'0 0.0
2017-May-21 09:00N 33°44' W 118°17'0 0.0
2017-May-21 08:30N 33°44' W 118°17'0 0.0
2017-May-21 08:00N 33°44' W 118°17'0 0.0
2017-May-21 07:30N 33°44' W 118°17'0 0.0
2017-May-21 07:00N 33°44' W 118°17'0 0.0
2017-May-21 06:30N 33°44' W 118°17'0 0.0
2017-May-21 06:00N 33°44' W 118°17'0 0.0
2017-May-21 05:30N 33°44' W 118°17'0 0.0
2017-May-21 05:00N 33°44' W 118°17'0 0.0
2017-May-21 04:30N 33°44' W 118°17'0 0.0
2017-May-21 03:52N 33°44' W 118°17'0 0.0
2017-May-21 03:30N 33°44' W 118°17'0 0.0
2017-May-21 03:00N 33°44' W 118°17'0 0.0
2017-May-21 02:30N 33°44' W 118°17'0 0.0
2017-May-21 02:00N 33°44' W 118°17'0 0.0
2017-May-21 01:30N 33°44' W 118°17'0 0.0
2017-May-21 01:00N 33°44' W 118°17'0 0.0
2017-May-21 00:30N 33°44' W 118°17'0 0.0
2017-May-21 00:00N 33°44' W 118°17'0 0.0
2017-May-20 23:30N 33°44' W 118°17'0 0.0
2017-May-20 23:00N 33°44' W 118°17'0 0.0
2017-May-20 22:30N 33°44' W 118°17'0 0.0
2017-May-20 22:00N 33°44' W 118°17'0 0.0
2017-May-20 21:30N 33°44' W 118°17'0 0.0
2017-May-20 17:00N 33°44' W 118°17'0 0.0
2017-May-20 16:04N 33°44' W 118°17'0 0.0
2017-May-20 15:51N 33°44' W 118°17'0 0.0
2017-May-20 15:29N 33°44' W 118°17'0 0.0
2017-May-20 14:48N 33°44' W 118°17'0 0.0
2017-May-20 14:30N 33°44' W 118°17'2 2.5
2017-May-20 13:30N 33°43' W 118°14'2 5.0
2017-May-20 13:00N 33°44' W 118°12'1 1.0
2017-May-20 12:30N 33°44' W 118°12'1 2.2
2017-May-20 12:00N 33°44' W 118°11'1 2.2
2017-May-20 11:30N 33°43' W 118°12'3 6.5
2017-May-20 11:00N 33°43' W 118°16'1 2.5
2017-May-20 10:29N 33°44' W 118°17'0 0.0
2017-May-20 09:56N 33°44' W 118°17'0 0.0
2017-May-20 09:22N 33°44' W 118°17'0 0.0
2017-May-20 09:00N 33°44' W 118°17'0 0.0
2017-May-20 08:30N 33°44' W 118°17'0 0.0
2017-May-20 07:55N 33°44' W 118°17'0 0.0
2017-May-20 07:29N 33°44' W 118°17'0 0.0
2017-May-20 06:54N 33°44' W 118°17'0 0.0
2017-May-20 06:28N 33°44' W 118°17'0 0.0
2017-May-20 05:59N 33°44' W 118°17'0 0.0
2017-May-20 05:30N 33°44' W 118°17'0 0.0
2017-May-20 05:00N 33°44' W 118°17'0 0.0
2017-May-20 04:30N 33°44' W 118°17'1 0.4
2017-May-20 03:06N 33°44' W 118°16'1 6.0
2017-May-20 02:59N 33°43' W 118°16'3 6.2
2017-May-20 02:30N 33°45' W 118°13'2 1.7
2017-May-20 01:35N 33°46' W 118°13'0 4.5
2017-May-20 01:30N 33°46' W 118°13'1 1.7
2017-May-20 00:52N 33°45' W 118°13'0 0.0
2017-May-20 00:30N 33°45' W 118°13'0 0.0
2017-May-19 23:57N 33°45' W 118°13'0 0.0
2017-May-19 23:24N 33°45' W 118°13'0 0.0
2017-May-19 22:58N 33°45' W 118°13'0 0.0
2017-May-19 22:30N 33°45' W 118°13'0 0.0
2017-May-19 22:00N 33°45' W 118°13'0 0.0
2017-May-19 21:30N 33°45' W 118°13'0 0.0
2017-May-19 20:38N 33°45' W 118°13'0 0.0
2017-May-19 20:23N 33°45' W 118°13'0 0.9
2017-May-19 19:51N 33°45' W 118°12'0 0.2
2017-May-19 19:30N 33°45' W 118°12'2 3.6
2017-May-19 19:00N 33°44' W 118°11'3 5.2
2017-May-19 18:30N 33°43' W 118°14'3 5.1
2017-May-19 17:59N 33°44' W 118°17'0 0.0
2017-May-19 17:29N 33°44' W 118°17'0 0.0
2017-May-19 17:00N 33°44' W 118°17'0 0.7
2017-May-19 16:30N 33°44' W 118°17'0 0.6
2017-May-19 15:59N 33°44' W 118°16'0 0.0
2017-May-19 15:29N 33°44' W 118°16'0 0.0
2017-May-19 15:00N 33°44' W 118°16'1 2.6
2017-May-19 14:30N 33°43' W 118°15'3 3.0
2017-May-19 13:30N 33°45' W 118°13'1 2.1
2017-May-19 13:00N 33°46' W 118°13'0 0.0
2017-May-19 12:30N 33°46' W 118°13'0 0.0
2017-May-19 12:00N 33°46' W 118°13'0 0.2
2017-May-19 11:30N 33°46' W 118°14'0 0.3
2017-May-19 11:00N 33°46' W 118°13'0 0.4
2017-May-19 10:30N 33°46' W 118°13'1 2.1
2017-May-19 10:00N 33°45' W 118°13'0 0.0
2017-May-19 09:30N 33°45' W 118°13'0 0.0
2017-May-19 09:00N 33°45' W 118°13'0 0.0
2017-May-19 08:26N 33°45' W 118°13'0 0.0
2017-May-19 08:00N 33°45' W 118°13'0 0.0
2017-May-19 07:29N 33°45' W 118°13'0 0.0
2017-May-19 07:00N 33°45' W 118°13'0 0.0
2017-May-19 06:30N 33°45' W 118°13'0 0.0
2017-May-19 06:00N 33°45' W 118°13'0 0.0
2017-May-19 05:30N 33°45' W 118°13'0 0.0
2017-May-19 05:00N 33°45' W 118°13'1 1.4
2017-May-19 04:30N 33°44' W 118°12'1 1.0
2017-May-19 04:00N 33°45' W 118°13'1 1.3
2017-May-19 03:30N 33°44' W 118°12'3 6.8
2017-May-19 03:00N 33°44' W 118°17'1 1.0
2017-May-19 02:30N 33°44' W 118°17'0 0.0
2017-May-19 02:00N 33°44' W 118°17'0 0.0
2017-May-19 01:30N 33°44' W 118°17'0 0.0
2017-May-19 01:00N 33°44' W 118°17'0 0.9
2017-May-19 00:30N 33°44' W 118°16'3 5.8
2017-May-19 00:00N 33°44' W 118°13'1 2.1
2017-May-18 23:24N 33°45' W 118°12'0 0.0
2017-May-18 22:38N 33°45' W 118°12'0 0.0
2017-May-18 22:24N 33°45' W 118°12'1 2.1
2017-May-18 21:55N 33°44' W 118°12'1 2.7
2017-May-18 21:28N 33°43' W 118°11'3 5.5
2017-May-18 21:00N 33°41' W 118°10'4 6.2
2017-May-18 20:21N 33°43' W 118°15'2 4.4
2017-May-18 19:55N 33°44' W 118°16'2 3.6
2017-May-18 19:29N 33°45' W 118°17'0 0.2
2017-May-18 18:59N 33°45' W 118°17'  
2017-May-14 13:00N 33°43' W 118°15'2 2.2
2017-May-14 12:18N 33°44' W 118°17'0 0.1
2017-May-14 11:50N 33°44' W 118°16'  

Dump ship's entire track history